Create Custom Reports and Graphics: Custom Report

Alpine-Summit 8643' (Ward Mt.)

Current Conditions

5/24/19 2:15 PM (-07:00)
Updated Every 15 Minutes
Temp 42.4 °F   3.3
RH 89 %   18
Wet Bulb 40.8 °F   0.4
Dew Pt 39.5 °F   2.4
Wind Spd 14.9 mph   1.4
Wind Dir SW | 220 °
Wind Gust 21.5 mph   4.4
WindChill 37.7 °F   2.3

Last 6 Hours

Alpine-Summit 8643' (Ward Mt.)

15 Minute Data | America/Los_Angeles
as of 5/24/19 2:19 PM PDT
Date & Time Temp (°F) RH (%) Dew Pt (°F) Wet Bulb (°F) Wind Dir (°) Wind Spd (mph) Wind Gust (mph) WindChill (°F)
5/24/19 - 1415 42.4 89 39.5 40.8 SW | 220 14.9 21.5 37.7
5/24/19 - 1400 45.0 76 37.9 41.2 SSW | 206 12.1 18.9 39.1
5/24/19 - 1345 44.3 80 38.5 41.2 S | 191 13.1 16.9 39.8
5/24/19 - 1330 47.3 72 38.9 42.8 SW | 220 14.4 19.7 42.7
5/24/19 - 1315 49.7 53 33.4 41.4 W | 275 8.3 15.3 47.0
5/24/19 - 1300 48.9 58 34.6 41.5 W | 268 10.9 17.8 43.9
5/24/19 - 1245 48.9 56 33.8 41.2 WSW | 247 7.2 12.6 44.8
5/24/19 - 1230 45.9 62 33.4 39.6 W | 272 7.8 15.3 42.7
5/24/19 - 1215 47.5 58 33.5 40.4 NNW | 337 2.6 14.9 46.9
5/24/19 - 1200 48.5 58 34.4 41.3 NNE | 21 0.7 2.7 48.8
5/24/19 - 1145 48.4 56 33.5 40.8 NNW | 329 3.5 9.5 46.3
5/24/19 - 1130 48.6 55 33.3 40.9 NNE | 16 0.6 3.5 49.1
5/24/19 - 1115 48.4 58 34.4 41.2 NE | 41 6.9 13.2 46.1
5/24/19 - 1100 48.9 59 35.1 41.8 NE | 53 9.8 17.6 43.7
5/24/19 - 1045 47.1 64 35.6 41.2 NNE | 33 6.9 11.6 43.0
5/24/19 - 1030 45.7 67 35.3 40.4 ENE | 61 10.5 16.0 41.7
5/24/19 - 1015 46.3 67 36.1 41.1 NE | 56 11.1 15.8 40.0
5/24/19 - 1000 44.8 71 35.9 40.2 ENE | 60 13.7 19.8 37.9
5/24/19 - 0945 44.1 73 36.2 40.0 ENE | 59 15.1 18.1 36.8
5/24/19 - 0930 43.5 75 36.2 39.8 ENE | 60 15.0 18.3 35.6
5/24/19 - 0915 42.4 78 36.0 39.1 ENE | 59 15.6 18.9 34.3
5/24/19 - 0900 41.9 80 36.2 39.0 ENE | 59 16.4 19.9 33.0
5/24/19 - 0845 40.8 82 35.8 38.2 ENE | 63 17.6 23.1 31.6
5/24/19 - 0830 39.8 84 35.3 37.5 ENE | 61 17.9 20.9 30.5
Max 49.7 89 39.5 42.8 - 17.9 23.1 49.1
Avg 45.8 68 35.5 40.5 - 10.5 15.9 41.0
Min 39.8 53 33.3 37.5 - 0.6 2.7 30.5

Last 30 Days

Alpine-Summit 8643' (Ward Mt.)

Daily Data | America/Los_Angeles
as of 5/24/19 2:19 PM PDT
Date Daily Max Temp (°F) Max Temp Time Daily Min Temp (°F) Min Temp Time Wind Spd (mph) Daily Max Wind (mph) Max RH (%) Min RH (%) Wet Bulb (°F)
5/23/19 48.6 1320 32.0 0005 19.2 58.1 100 58 36.2
5/22/19 39.1 1717 25.0 0018 25.6 58.1 100 95 31.2
5/21/19 32.7 1503 23.5 0612 38.7 85.5 100 98 27.1
5/20/19 32.0 1511 21.4 0151 31.1 78.8 100 97 27.1
5/19/19 32.7 1315 21.6 2243 34.0 77.0 100 97 26.5
5/18/19 34.8 1311 25.6 0437 24.3 65.8 100 95 29.1
5/17/19 34.1 1506 23.3 0357 30.0 79.3 100 98 28.5
5/16/19 32.4 0012 22.9 0628 56.1 98.0 100 97 26.3
5/15/19 39.6 0000 31.2 2333 42.7 97.7 100 71 34.2
5/14/19 50.7 1608 38.0 0324 27.2 51.1 73 37 35.7
5/13/19 52.9 1602 40.0 2153 27.2 51.0 83 36 38.4
5/12/19 60.6 1318 44.7 0609 12.7 43.1 84 26 42.1
5/11/19 65.8 1718 37.6 0333 13.6 46.9 64 21 37.8
5/10/19 54.1 1730 29.5 0550 41.0 86.8 80 27 32.4
5/9/19 54.1 1632 35.3 2356 28.8 68.5 74 37 36.1
5/8/19 61.7 1601 37.2 0445 16.1 54.1 92 34 39.0
5/7/19 55.0 1506 38.1 0542 11.8 37.6 86 30 39.3
5/6/19 57.0 1340 37.6 0619 18.1 49.7 91 46 38.2
5/5/19 61.5 1453 38.6 0453 12.9 50.0 93 29 38.0
5/4/19 57.6 1703 37.2 0508 7.9 30.8 84 21 36.5
5/3/19 54.9 1803 36.1 0023 11.2 28.9 78 34 37.0
5/2/19 53.0 1619 27.8 0541 10.9 32.6 86 24 32.2
5/1/19 46.2 1530 24.0 0553 20.6 39.8 89 42 28.8
4/30/19 38.0 1549 25.3 2235 37.5 87.7 100 75 31.0
4/29/19 48.0 1434 33.9 2353 21.7 43.7 100 27 34.4
4/28/19 54.8 1710 37.9 0607 21.5 47.6 68 16 33.8
4/27/19 52.8 1600 38.8 2328 27.3 54.7 69 34 37.0
4/26/19 55.5 1544 43.2 0620 26.6 47.6 70 34 39.0
4/25/19 58.5 1534 33.6 1018 16.8 44.1 83 39 41.7
4/24/19 61.0 1714 44.3 0625 13.0 33.3 83 42 43.7
Max 65.8 - 44.7 - 56.1 98.0 100 98 43.7
Avg - - - - 24.2 - - - 34.6
Min 32.0 - 21.4 - 7.9 28.9 64 16 26.3
Calm: 0.0%
Calm: 0.0%